Time;durP1;ratioP1;P1;durP2;ratioP2;P2;SDS_P1;SDS_P2;PMS_P1;PMS_P2;Temp;Humidity;BMP_temperature;BMP_pressure;BME280_temperature;BME280_humidity;BME280_pressure;Samples;Min_cycle;Max_cycle;Signal;HPM_P1;HPM_P2
2021/08/01 00:00:13;;;;;;;6.38;3.13;;;;;;;;;;5097174;28;20456;-59
2021/08/01 00:02:40;;;;;;;4.05;2.78;;;;;;;;;;5097421;28;20032;-59
2021/08/01 00:05:06;;;;;;;5.30;3.22;;;;;;;;;;5097402;28;20062;-59
2021/08/01 00:07:34;;;;;;;4.22;3.05;;;;;;;;;;5097345;28;20103;-59
2021/08/01 00:10:00;;;;;;;8.68;3.15;;;;;;;;;;5096657;28;20035;-59
2021/08/01 00:12:27;;;;;;;6.43;3.53;;;;;;;;;;5095770;28;20052;-59
2021/08/01 00:14:53;;;;;;;5.70;3.47;;;;;;;;;;5096824;28;20028;-59
2021/08/01 00:17:19;;;;;;;5.20;3.58;;;;;;;;;;5079071;28;20465;-59
2021/08/01 00:19:45;;;;;;;4.00;3.17;;;;;;;;;;5096937;28;20055;-59
2021/08/01 00:22:11;;;;;;;4.28;3.30;;;;;;;;;;5097185;28;20452;-59
2021/08/01 00:24:37;;;;;;;5.63;3.13;;;;;;;;;;5097172;28;20461;-59
2021/08/01 00:27:06;;;;;;;7.50;3.22;;;;;;;;;;5097817;28;20118;-58
2021/08/01 00:29:32;;;;;;;5.53;3.38;;;;;;;;;;5095984;28;20060;-59
2021/08/01 00:31:59;;;;;;;8.32;3.78;;;;;;;;;;5095620;28;20448;-59
2021/08/01 00:34:25;;;;;;;3.78;3.38;;;;;;;;;;5095471;28;20031;-59
2021/08/01 00:36:51;;;;;;;5.65;3.78;;;;;;;;;;5096162;28;20024;-59
2021/08/01 00:39:17;;;;;;;4.03;2.70;;;;;;;;;;5096884;28;20355;-58
2021/08/01 00:41:43;;;;;;;4.25;3.85;;;;;;;;;;5097146;28;20053;-59
2021/08/01 00:44:09;;;;;;;4.70;3.30;;;;;;;;;;5097517;28;20032;-59
2021/08/01 00:46:38;;;;;;;3.97;3.38;;;;;;;;;;5097241;28;20058;-59
2021/08/01 00:49:04;;;;;;;4.45;3.75;;;;;;;;;;5096587;28;20420;-59
2021/08/01 00:51:30;;;;;;;5.13;3.40;;;;;;;;;;5097415;28;20031;-59
2021/08/01 00:54:00;;;;;;;4.15;3.00;;;;;;;;;;5095616;28;20040;-59
2021/08/01 00:56:29;;;;;;;4.75;3.70;;;;;;;;;;5096111;28;20346;-59
2021/08/01 00:58:55;;;;;;;6.15;3.90;;;;;;;;;;5096562;28;20377;-59
2021/08/01 01:01:27;;;;;;;5.15;3.47;;;;;;;;;;5097121;28;20035;-59
2021/08/01 01:04:00;;;;;;;3.28;2.95;;;;;;;;;;5096406;28;20024;-59
2021/08/01 01:06:36;;;;;;;5.53;3.30;;;;;;;;;;5095193;28;20028;-59
2021/08/01 01:09:13;;;;;;;3.92;3.42;;;;;;;;;;5096341;28;20024;-59
2021/08/01 01:11:42;;;;;;;5.20;3.53;;;;;;;;;;5094724;28;20078;-59
2021/08/01 01:14:10;;;;;;;3.35;2.97;;;;;;;;;;5096414;28;20031;-59
2021/08/01 01:16:41;;;;;;;5.40;3.83;;;;;;;;;;5097036;28;20456;-59
2021/08/01 01:19:06;;;;;;;;;;;;;;;;;;5096796;28;20028;-59
2021/08/01 01:21:40;;;;;;;4.68;3.10;;;;;;;;;;5096208;28;19914;-59
2021/08/01 01:24:08;;;;;;;5.55;3.67;;;;;;;;;;5096382;28;20034;-59
2021/08/01 01:26:39;;;;;;;5.70;4.13;;;;;;;;;;5096608;28;20028;-59
2021/08/01 01:29:12;;;;;;;6.78;4.13;;;;;;;;;;5095739;28;20024;-59
2021/08/01 01:31:44;;;;;;;5.10;3.92;;;;;;;;;;5095055;28;20024;-59
2021/08/01 01:34:10;;;;;;;12.85;4.90;;;;;;;;;;5095978;28;20034;-59
2021/08/01 01:36:37;;;;;;;6.47;3.53;;;;;;;;;;5096120;28;20108;-59
2021/08/01 01:39:05;;;;;;;4.30;3.78;;;;;;;;;;5096620;28;20052;-59
2021/08/01 01:41:31;;;;;;;5.82;3.67;;;;;;;;;;5096493;28;20024;-59
2021/08/01 01:43:58;;;;;;;6.55;4.95;;;;;;;;;;5096271;28;20032;-58
2021/08/01 01:46:24;;;;;;;6.10;4.05;;;;;;;;;;5094523;28;20069;-59
2021/08/01 01:48:51;;;;;;;10.18;4.22;;;;;;;;;;5095759;28;20028;-59
2021/08/01 01:51:18;;;;;;;7.43;4.07;;;;;;;;;;5095560;28;20410;-59
2021/08/01 01:53:44;;;;;;;6.72;4.18;;;;;;;;;;5095557;28;20476;-59
2021/08/01 01:56:14;;;;;;;5.55;3.67;;;;;;;;;;5095871;28;20362;-59
2021/08/01 01:58:40;;;;;;;6.07;4.35;;;;;;;;;;5095559;28;20054;-59
2021/08/01 02:01:06;;;;;;;5.30;4.30;;;;;;;;;;5095435;28;20343;-59
2021/08/01 02:03:33;;;;;;;5.25;3.85;;;;;;;;;;5095702;28;20046;-59
2021/08/01 02:05:59;;;;;;;5.28;3.97;;;;;;;;;;5095611;28;20081;-59
2021/08/01 02:08:27;;;;;;;7.43;3.60;;;;;;;;;;5095343;28;20449;-59
2021/08/01 02:11:00;;;;;;;5.22;4.00;;;;;;;;;;5095634;28;20052;-59
2021/08/01 02:13:37;;;;;;;11.20;4.20;;;;;;;;;;5095770;28;20093;-59
2021/08/01 02:16:06;;;;;;;4.85;3.90;;;;;;;;;;5095050;28;20028;-59
2021/08/01 02:18:37;;;;;;;7.57;5.10;;;;;;;;;;5095700;28;20035;-59
2021/08/01 02:21:03;;;;;;;4.32;3.92;;;;;;;;;;5092916;28;20035;-59
2021/08/01 02:23:36;;;;;;;7.60;4.70;;;;;;;;;;5095330;28;20068;-59
2021/08/01 02:26:03;;;;;;;7.88;4.65;;;;;;;;;;5093697;28;20035;-59
2021/08/01 02:28:29;;;;;;;5.88;4.25;;;;;;;;;;5094943;28;20041;-59
2021/08/01 02:30:56;;;;;;;6.13;3.97;;;;;;;;;;5095009;28;20367;-59
2021/08/01 02:33:26;;;;;;;5.97;4.25;;;;;;;;;;5095223;28;20032;-59
2021/08/01 02:35:54;;;;;;;5.82;4.22;;;;;;;;;;5093620;28;20030;-59
2021/08/01 02:38:20;;;;;;;4.82;4.32;;;;;;;;;;5094829;28;20024;-59
2021/08/01 02:40:46;;;;;;;6.53;4.25;;;;;;;;;;5094768;28;20020;-59
2021/08/01 02:43:14;;;;;;;6.68;4.05;;;;;;;;;;5094925;28;20343;-59
2021/08/01 02:45:42;;;;;;;6.63;3.95;;;;;;;;;;5095259;28;20036;-59
2021/08/01 02:48:10;;;;;;;5.45;4.30;;;;;;;;;;5094661;28;20032;-59
2021/08/01 02:50:37;;;;;;;10.70;4.85;;;;;;;;;;5094849;28;20024;-59
2021/08/01 02:53:04;;;;;;;6.22;3.95;;;;;;;;;;5094755;28;20374;-59
2021/08/01 02:55:32;;;;;;;7.55;5.35;;;;;;;;;;5093196;28;20106;-59
2021/08/01 02:57:59;;;;;;;5.35;4.45;;;;;;;;;;5094796;28;20078;-59
2021/08/01 03:00:25;;;;;;;5.57;4.75;;;;;;;;;;5094693;28;20024;-59
2021/08/01 03:02:52;;;;;;;6.43;5.05;;;;;;;;;;5094659;28;20081;-59
2021/08/01 03:05:19;;;;;;;6.93;4.95;;;;;;;;;;5094556;28;20021;-59
2021/08/01 03:07:45;;;;;;;5.55;4.32;;;;;;;;;;5094250;28;20381;-59
2021/08/01 03:10:13;;;;;;;6.32;4.78;;;;;;;;;;5094605;28;20028;-59
2021/08/01 03:12:46;;;;;;;6.75;4.63;;;;;;;;;;5094580;28;20055;-59
2021/08/01 03:15:12;;;;;;;5.53;4.80;;;;;;;;;;5094567;28;20028;-59
2021/08/01 03:17:38;;;;;;;5.80;4.28;;;;;;;;;;5093881;28;20462;-59
2021/08/01 03:20:08;;;;;;;10.77;4.65;;;;;;;;;;5092902;28;20024;-59
2021/08/01 03:22:34;;;;;;;6.40;4.93;;;;;;;;;;5092911;28;20039;-59
2021/08/01 03:25:00;;;;;;;5.35;4.85;;;;;;;;;;5093336;28;20058;-59
2021/08/01 03:27:26;;;;;;;7.47;4.38;;;;;;;;;;5094044;28;20024;-59
2021/08/01 03:29:52;;;;;;;7.22;4.15;;;;;;;;;;5093794;28;20028;-59
2021/08/01 03:32:22;;;;;;;8.38;4.75;;;;;;;;;;5093156;28;20016;-59
2021/08/01 03:34:53;;;;;;;4.95;4.07;;;;;;;;;;5094294;28;20024;-59
2021/08/01 03:37:19;;;;;;;6.05;4.82;;;;;;;;;;5094359;28;20031;-59
2021/08/01 03:39:45;;;;;;;4.75;3.65;;;;;;;;;;5076073;28;20024;-59
2021/08/01 03:42:11;;;;;;;6.07;5.00;;;;;;;;;;5094569;28;20035;-59
2021/08/01 03:44:37;;;;;;;7.18;4.85;;;;;;;;;;5093925;28;20410;-59
2021/08/01 03:47:06;;;;;;;7.82;5.70;;;;;;;;;;5094702;28;20059;-59
2021/08/01 03:49:32;;;;;;;7.50;4.20;;;;;;;;;;5092650;28;20024;-59
2021/08/01 03:51:58;;;;;;;5.25;4.32;;;;;;;;;;5093284;28;20115;-59
2021/08/01 03:54:24;;;;;;;6.72;5.10;;;;;;;;;;5093869;28;20035;-59
2021/08/01 03:56:50;;;;;;;5.13;4.18;;;;;;;;;;5094149;28;20032;-59
2021/08/01 03:59:16;;;;;;;5.25;4.75;;;;;;;;;;5094321;28;20043;-59
2021/08/01 04:01:42;;;;;;;6.57;4.80;;;;;;;;;;5093855;28;20028;-59
2021/08/01 04:04:09;;;;;;;7.07;5.03;;;;;;;;;;5093958;28;20040;-59
2021/08/01 04:06:35;;;;;;;8.23;5.25;;;;;;;;;;5094549;28;20020;-59
2021/08/01 04:09:01;;;;;;;8.48;5.07;;;;;;;;;;5093701;28;20031;-59
2021/08/01 04:11:27;;;;;;;7.57;4.85;;;;;;;;;;5092324;28;20052;-59
2021/08/01 04:13:53;;;;;;;8.70;4.72;;;;;;;;;;5093925;28;20024;-59
2021/08/01 04:16:19;;;;;;;7.53;4.78;;;;;;;;;;5092254;28;20416;-59
2021/08/01 04:18:45;;;;;;;5.63;4.88;;;;;;;;;;5092340;28;20028;-59
2021/08/01 04:21:15;;;;;;;5.30;4.78;;;;;;;;;;5093698;28;20032;-59
2021/08/01 04:23:41;;;;;;;7.70;4.77;;;;;;;;;;5093499;28;20504;-59
2021/08/01 04:26:08;;;;;;;6.25;5.65;;;;;;;;;;5092285;28;20601;-59
2021/08/01 04:28:34;;;;;;;6.00;5.15;;;;;;;;;;5094066;28;20074;-59
2021/08/01 04:31:00;;;;;;;6.60;4.80;;;;;;;;;;5093528;28;20036;-59
2021/08/01 04:33:26;;;;;;;8.80;5.15;;;;;;;;;;5094073;28;20032;-59
2021/08/01 04:35:53;;;;;;;6.95;4.97;;;;;;;;;;5093406;28;20060;-59
2021/08/01 04:38:19;;;;;;;5.32;4.82;;;;;;;;;;5093501;28;20031;-59
2021/08/01 04:40:45;;;;;;;6.68;5.07;;;;;;;;;;5092153;28;20115;-59
2021/08/01 04:43:11;;;;;;;7.05;5.43;;;;;;;;;;5094229;28;20370;-59
2021/08/01 04:45:37;;;;;;;6.13;5.35;;;;;;;;;;5097208;28;20028;-59
2021/08/01 04:48:06;;;;;;;8.85;4.88;;;;;;;;;;5097460;28;20028;-59
2021/08/01 04:50:32;;;;;;;5.88;4.55;;;;;;;;;;5097076;28;20115;-59
2021/08/01 04:53:01;;;;;;;5.97;4.40;;;;;;;;;;5095829;28;20075;-59
2021/08/01 04:55:27;;;;;;;5.00;4.10;;;;;;;;;;5095922;28;20115;-59
2021/08/01 04:57:53;;;;;;;5.78;4.25;;;;;;;;;;5097124;28;20103;-59
2021/08/01 05:00:19;;;;;;;5.53;4.00;;;;;;;;;;5095666;28;20055;-59
2021/08/01 05:02:45;;;;;;;7.25;4.93;;;;;;;;;;5096251;28;20043;-59
2021/08/01 05:05:11;;;;;;;5.18;4.72;;;;;;;;;;5095560;28;20024;-59
2021/08/01 05:07:37;;;;;;;5.13;4.63;;;;;;;;;;5095517;28;20032;-59
2021/08/01 05:10:06;;;;;;;9.00;4.85;;;;;;;;;;5095591;28;20513;-59
2021/08/01 05:12:32;;;;;;;6.40;4.45;;;;;;;;;;5097718;28;20058;-59
2021/08/01 05:14:58;;;;;;;5.88;4.85;;;;;;;;;;5095228;28;20028;-59
2021/08/01 05:17:24;;;;;;;5.03;4.53;;;;;;;;;;5097072;28;20357;-59
2021/08/01 05:19:51;;;;;;;4.88;4.32;;;;;;;;;;5095359;28;20048;-59
2021/08/01 05:22:17;;;;;;;5.95;5.32;;;;;;;;;;5095761;28;20412;-59
2021/08/01 05:24:43;;;;;;;6.35;4.63;;;;;;;;;;5095733;28;20060;-59
2021/08/01 05:27:09;;;;;;;6.30;4.10;;;;;;;;;;5095673;28;20077;-59
2021/08/01 05:29:36;;;;;;;6.30;4.78;;;;;;;;;;5096379;28;20449;-59
2021/08/01 05:32:02;;;;;;;5.70;4.68;;;;;;;;;;5096671;28;20579;-59
2021/08/01 05:34:28;;;;;;;6.10;4.30;;;;;;;;;;5096198;28;20051;-59
2021/08/01 05:36:54;;;;;;;6.20;5.07;;;;;;;;;;5078173;28;20070;-59
2021/08/01 05:39:20;;;;;;;7.00;4.47;;;;;;;;;;5096121;28;20031;-59
2021/08/01 05:41:45;;;;;;;5.20;4.40;;;;;;;;;;5096230;28;20024;-59
2021/08/01 05:44:11;;;;;;;4.50;4.10;;;;;;;;;;5094447;28;20040;-59
2021/08/01 05:46:37;;;;;;;6.50;4.85;;;;;;;;;;5096012;28;20035;-59
2021/08/01 05:49:03;;;;;;;4.57;4.18;;;;;;;;;;5095966;28;20032;-59
2021/08/01 05:51:29;;;;;;;4.18;3.72;;;;;;;;;;5096653;28;20024;-59
2021/08/01 05:53:55;;;;;;;4.47;4.07;;;;;;;;;;5095860;28;20032;-59
2021/08/01 05:56:21;;;;;;;5.63;3.75;;;;;;;;;;5094745;28;20039;-59
2021/08/01 05:58:47;;;;;;;4.78;4.25;;;;;;;;;;5095663;28;20074;-59
2021/08/01 06:01:14;;;;;;;4.93;4.18;;;;;;;;;;5095691;28;20024;-59
2021/08/01 06:03:40;;;;;;;6.00;3.60;;;;;;;;;;5095607;28;20086;-59
2021/08/01 06:06:12;;;;;;;5.47;4.68;;;;;;;;;;5095582;28;20043;-59
2021/08/01 06:08:40;;;;;;;7.13;4.70;;;;;;;;;;5096079;28;20404;-59
2021/08/01 06:11:06;;;;;;;5.28;4.15;;;;;;;;;;5094887;28;20147;-59
2021/08/01 06:13:32;;;;;;;5.20;4.57;;;;;;;;;;5094290;28;20143;-59
2021/08/01 06:15:58;;;;;;;5.97;4.55;;;;;;;;;;5094043;28;20028;-59
2021/08/01 06:18:24;;;;;;;5.28;4.60;;;;;;;;;;5094897;28;20032;-59
2021/08/01 06:20:50;;;;;;;5.22;4.75;;;;;;;;;;5095997;28;20066;-59
2021/08/01 06:23:16;;;;;;;6.13;5.50;;;;;;;;;;5095236;28;20035;-59
2021/08/01 06:25:42;;;;;;;5.43;4.93;;;;;;;;;;5095191;28;20469;-59
2021/08/01 06:28:08;;;;;;;7.70;5.10;;;;;;;;;;5095137;28;20038;-59
2021/08/01 06:30:40;;;;;;;6.10;4.63;;;;;;;;;;5094435;28;20021;-59
2021/08/01 06:33:06;;;;;;;5.50;4.65;;;;;;;;;;5095718;28;20068;-59
2021/08/01 06:35:32;;;;;;;5.30;4.72;;;;;;;;;;5095070;28;20412;-59
2021/08/01 06:37:58;;;;;;;5.57;4.72;;;;;;;;;;5077803;28;20028;-59
2021/08/01 06:40:24;;;;;;;5.65;5.13;;;;;;;;;;5094933;28;20028;-59
2021/08/01 06:42:50;;;;;;;7.13;5.15;;;;;;;;;;5077421;28;20024;-59
2021/08/01 06:45:16;;;;;;;6.63;5.45;;;;;;;;;;5094529;28;20035;-59
2021/08/01 06:47:42;;;;;;;8.70;5.35;;;;;;;;;;5093295;28;20028;-59
2021/08/01 06:50:08;;;;;;;8.10;6.03;;;;;;;;;;5094746;28;20529;-59
2021/08/01 06:52:34;;;;;;;6.70;5.53;;;;;;;;;;5095091;28;20024;-59
2021/08/01 06:55:02;;;;;;;7.43;5.65;;;;;;;;;;5093441;28;20051;-58
2021/08/01 06:57:28;;;;;;;7.55;6.18;;;;;;;;;;5095154;28;20085;-59
2021/08/01 06:59:54;;;;;;;6.22;5.38;;;;;;;;;;5093381;28;20458;-59
2021/08/01 07:02:20;;;;;;;10.95;6.07;;;;;;;;;;5094503;28;20028;-59
2021/08/01 07:04:46;;;;;;;5.68;5.05;;;;;;;;;;5093318;28;20063;-59
2021/08/01 07:07:12;;;;;;;6.22;5.63;;;;;;;;;;5094540;28;20027;-59
2021/08/01 07:09:41;;;;;;;5.97;5.32;;;;;;;;;;5094426;28;20024;-59
2021/08/01 07:12:10;;;;;;;6.80;4.85;;;;;;;;;;5094522;28;20052;-59
2021/08/01 07:14:36;;;;;;;7.03;5.15;;;;;;;;;;5094280;28;20065;-59
2021/08/01 07:17:03;;;;;;;5.45;4.95;;;;;;;;;;5094285;28;20020;-59
2021/08/01 07:19:29;;;;;;;5.43;4.93;;;;;;;;;;5092754;28;20016;-59
2021/08/01 07:21:55;;;;;;;7.45;6.07;;;;;;;;;;5094538;28;20066;-59
2021/08/01 07:24:21;;;;;;;5.15;4.65;;;;;;;;;;5093386;28;20059;-59
2021/08/01 07:26:47;;;;;;;6.05;4.15;;;;;;;;;;5094773;28;20067;-59
2021/08/01 07:29:13;;;;;;;6.05;4.20;;;;;;;;;;5094677;28;20468;-59
2021/08/01 07:31:39;;;;;;;6.63;5.45;;;;;;;;;;5094887;28;20028;-59
2021/08/01 07:34:05;;;;;;;6.78;3.97;;;;;;;;;;5092622;28;20027;-59
2021/08/01 07:36:31;;;;;;;6.10;4.50;;;;;;;;;;5093847;28;20031;-59
2021/08/01 07:38:57;;;;;;;4.47;4.07;;;;;;;;;;5093767;28;20036;-59
2021/08/01 07:41:23;;;;;;;6.10;5.13;;;;;;;;;;5094642;28;20162;-59
2021/08/01 07:43:51;;;;;;;5.03;4.47;;;;;;;;;;5093959;28;20374;-59
2021/08/01 07:46:18;;;;;;;8.63;5.45;;;;;;;;;;5093940;28;20135;-59
2021/08/01 07:48:44;;;;;;;6.43;4.95;;;;;;;;;;5092663;28;20052;-59
2021/08/01 07:51:10;;;;;;;4.53;4.13;;;;;;;;;;5093494;28;20024;-59
2021/08/01 07:53:36;;;;;;;5.70;4.90;;;;;;;;;;5094374;28;20050;-59
2021/08/01 07:56:02;;;;;;;6.65;4.75;;;;;;;;;;5093800;28;20085;-59
2021/08/01 07:58:29;;;;;;;7.85;5.18;;;;;;;;;;5094116;28;20397;-59
2021/08/01 08:00:55;;;;;;;4.65;4.20;;;;;;;;;;5094073;28;20439;-59
2021/08/01 08:03:21;;;;;;;9.15;5.40;;;;;;;;;;5094281;28;20043;-59
2021/08/01 08:05:47;;;;;;;5.60;4.72;;;;;;;;;;5093765;28;20424;-59
2021/08/01 08:08:16;;;;;;;6.35;5.05;;;;;;;;;;5093016;28;20074;-59
2021/08/01 08:10:42;;;;;;;5.75;4.60;;;;;;;;;;5093783;28;20028;-59
2021/08/01 08:13:08;;;;;;;5.78;4.78;;;;;;;;;;5094296;28;20351;-59
2021/08/01 08:15:34;;;;;;;7.93;4.93;;;;;;;;;;5075619;28;20027;-59
2021/08/01 08:18:00;;;;;;;5.30;4.65;;;;;;;;;;5093508;28;20028;-59
2021/08/01 08:20:26;;;;;;;5.85;4.25;;;;;;;;;;5097362;28;20506;-59
2021/08/01 08:22:52;;;;;;;4.78;4.25;;;;;;;;;;5097957;28;20101;-59
2021/08/01 08:25:20;;;;;;;5.25;4.63;;;;;;;;;;5097822;28;20099;-59
2021/08/01 08:27:46;;;;;;;7.00;4.22;;;;;;;;;;5097827;28;20107;-59
2021/08/01 08:30:13;;;;;;;6.47;4.80;;;;;;;;;;5095919;28;20470;-59
2021/08/01 08:32:39;;;;;;;6.72;3.90;;;;;;;;;;5096666;28;20035;-59
2021/08/01 08:35:05;;;;;;;4.47;3.75;;;;;;;;;;5097286;28;20024;-59
2021/08/01 08:37:31;;;;;;;10.80;3.83;;;;;;;;;;5097194;28;20035;-59
2021/08/01 08:39:57;;;;;;;4.88;4.00;;;;;;;;;;5097020;28;20020;-59
2021/08/01 08:42:25;;;;;;;5.55;4.03;;;;;;;;;;5095955;28;20110;-59
2021/08/01 08:44:51;;;;;;;5.70;3.40;;;;;;;;;;5097232;28;20490;-59
2021/08/01 08:47:20;;;;;;;4.30;3.30;;;;;;;;;;5097749;28;20122;-59
2021/08/01 08:49:48;;;;;;;10.00;5.07;;;;;;;;;;5097463;28;20107;-59
2021/08/01 08:52:15;;;;;;;6.00;4.90;;;;;;;;;;5097080;28;20024;-59
2021/08/01 08:54:51;;;;;;;6.30;4.53;;;;;;;;;;5095425;28;20028;-59
2021/08/01 08:57:29;;;;;;;5.03;4.18;;;;;;;;;;5097054;28;20024;-59
2021/08/01 09:00:06;;;;;;;5.10;4.18;;;;;;;;;;5096951;28;20024;-59
2021/08/01 09:02:34;;;;;;;6.88;4.63;;;;;;;;;;5096874;28;20561;-59
2021/08/01 09:05:00;;;;;;;10.25;4.60;;;;;;;;;;5095623;28;20115;-59
2021/08/01 09:07:26;;;;;;;4.97;4.18;;;;;;;;;;5096829;28;20081;-59
2021/08/01 09:09:52;;;;;;;5.55;4.10;;;;;;;;;;5097058;28;20051;-59
2021/08/01 09:12:18;;;;;;;4.18;3.75;;;;;;;;;;5096483;28;20550;-59
2021/08/01 09:14:45;;;;;;;4.68;3.75;;;;;;;;;;5096644;28;20028;-58
2021/08/01 09:17:11;;;;;;;6.72;3.67;;;;;;;;;;5097176;28;20031;-59
2021/08/01 09:19:42;;;;;;;4.40;3.47;;;;;;;;;;5096583;28;20023;-59
2021/08/01 09:22:11;;;;;;;5.88;4.63;;;;;;;;;;5096139;28;20024;-59
2021/08/01 09:24:40;;;;;;;5.45;4.03;;;;;;;;;;5096418;28;20069;-59
2021/08/01 09:27:06;;;;;;;5.85;4.50;;;;;;;;;;5095168;28;20028;-59
2021/08/01 09:29:34;;;;;;;5.22;4.40;;;;;;;;;;5096364;28;20102;-59
2021/08/01 09:32:00;;;;;;;5.32;4.38;;;;;;;;;;5095426;28;20024;-59
2021/08/01 09:34:27;;;;;;;5.22;3.67;;;;;;;;;;5095561;28;20081;-59
2021/08/01 09:36:57;;;;;;;3.88;2.67;;;;;;;;;;5097038;28;20130;-59
2021/08/01 09:39:23;;;;;;;3.75;2.83;;;;;;;;;;5096148;28;20024;-59
2021/08/01 09:41:56;;;;;;;6.05;2.90;;;;;;;;;;5096413;28;20024;-59
2021/08/01 09:44:22;;;;;;;4.38;3.35;;;;;;;;;;5096575;28;20381;-59
2021/08/01 09:46:50;;;;;;;3.60;2.88;;;;;;;;;;5096040;28;20028;-59
2021/08/01 09:49:17;;;;;;;4.55;2.47;;;;;;;;;;5094804;28;20112;-59
2021/08/01 09:51:47;;;;;;;4.18;2.70;;;;;;;;;;5096590;28;20032;-59
2021/08/01 09:54:13;;;;;;;4.40;3.05;;;;;;;;;;5095869;28;20084;-59
2021/08/01 09:56:51;;;;;;;4.10;2.92;;;;;;;;;;5096409;28;20461;-59
2021/08/01 09:59:26;;;;;;;3.70;3.20;;;;;;;;;;5095176;28;20354;-59
2021/08/01 10:01:54;;;;;;;4.10;3.08;;;;;;;;;;5095857;28;20351;-59
2021/08/01 10:04:24;;;;;;;3.83;3.15;;;;;;;;;;5095548;28;20036;-59
2021/08/01 10:07:02;;;;;;;5.33;4.23;;;;;;;;;;5095648;28;20031;-59
2021/08/01 10:09:30;;;;;;;7.10;4.50;;;;;;;;;;5094374;28;20018;-59
2021/08/01 10:11:56;;;;;;;4.78;3.70;;;;;;;;;;5095743;28;20048;-59
2021/08/01 10:14:23;;;;;;;7.47;3.45;;;;;;;;;;5095420;28;20059;-59
2021/08/01 10:16:49;;;;;;;4.85;3.88;;;;;;;;;;5095232;28;20442;-59
2021/08/01 10:19:15;;;;;;;4.78;3.17;;;;;;;;;;5096257;28;20031;-59
2021/08/01 10:21:45;;;;;;;4.25;3.60;;;;;;;;;;5095930;28;20032;-59
2021/08/01 10:24:13;;;;;;;5.18;4.18;;;;;;;;;;5093665;28;20028;-59
2021/08/01 10:26:41;;;;;;;7.55;5.13;;;;;;;;;;5095581;28;20050;-59
2021/08/01 10:29:08;;;;;;;5.68;5.07;;;;;;;;;;5095908;28;20028;-59
2021/08/01 10:31:34;;;;;;;9.52;4.22;;;;;;;;;;5094411;28;20031;-59
2021/08/01 10:34:19;;;;;;;4.93;4.15;;;;;;;;;;5095196;28;20039;-59
2021/08/01 10:36:48;;;;;;;4.43;3.65;;;;;;;;;;5095336;28;20016;-59
2021/08/01 10:39:15;;;;;;;4.78;4.30;;;;;;;;;;5095086;28;20020;-59
2021/08/01 10:41:42;;;;;;;4.28;3.88;;;;;;;;;;5094891;28;20161;-59
2021/08/01 10:44:12;;;;;;;6.25;4.15;;;;;;;;;;5094817;28;20032;-59
2021/08/01 10:46:42;;;;;;;5.30;3.35;;;;;;;;;;5094133;28;20043;-59
2021/08/01 10:49:12;;;;;;;3.50;2.70;;;;;;;;;;5093613;28;20111;-59
2021/08/01 10:51:38;;;;;;;4.05;3.13;;;;;;;;;;5093505;28;20037;-59
2021/08/01 10:54:16;;;;;;;5.03;3.45;;;;;;;;;;5093367;28;20044;-59
2021/08/01 10:56:42;;;;;;;3.55;3.25;;;;;;;;;;5094704;28;20050;-59
2021/08/01 10:59:29;;;;;;;4.25;3.22;;;;;;;;;;5093071;28;20031;-59
2021/08/01 11:02:14;;;;;;;3.38;2.88;;;;;;;;;;5094282;28;20020;-59
2021/08/01 11:04:43;;;;;;;3.45;2.72;;;;;;;;;;5094567;28;20058;-58
2021/08/01 11:07:09;;;;;;;3.83;2.78;;;;;;;;;;5094808;28;20032;-58
2021/08/01 11:09:35;;;;;;;4.03;2.88;;;;;;;;;;5094994;28;20089;-59
2021/08/01 11:12:20;;;;;;;5.53;3.00;;;;;;;;;;5094685;28;20469;-58
2021/08/01 11:14:47;;;;;;;3.50;2.83;;;;;;;;;;5094282;28;20114;-58
2021/08/01 11:17:13;;;;;;;4.72;3.72;;;;;;;;;;5094259;28;20021;-58
2021/08/01 11:19:39;;;;;;;5.47;3.40;;;;;;;;;;5094355;28;20107;-58
2021/08/01 11:22:05;;;;;;;5.90;3.55;;;;;;;;;;5094332;28;20496;-58
2021/08/01 11:24:34;;;;;;;3.50;3.13;;;;;;;;;;5094223;28;20056;-58
2021/08/01 11:27:07;;;;;;;5.43;3.75;;;;;;;;;;5094731;28;20028;-58
2021/08/01 11:29:53;;;;;;;4.53;3.58;;;;;;;;;;5094191;28;20044;-58
2021/08/01 11:32:19;;;;;;;4.30;3.33;;;;;;;;;;5092794;28;20043;-58
2021/08/01 11:34:45;;;;;;;6.40;3.67;;;;;;;;;;5094161;28;20054;-58
2021/08/01 11:37:21;;;;;;;3.80;3.13;;;;;;;;;;5093587;28;20493;-58
2021/08/01 11:39:52;;;;;;;4.10;3.20;;;;;;;;;;5092394;28;20481;-58
2021/08/01 11:42:24;;;;;;;6.72;3.03;;;;;;;;;;5094048;28;20027;-58
2021/08/01 11:45:01;;;;;;;7.30;3.83;;;;;;;;;;5093792;28;20040;-58
2021/08/01 11:47:28;;;;;;;3.95;3.22;;;;;;;;;;5094328;28;20446;-58
2021/08/01 11:49:56;;;;;;;3.95;3.25;;;;;;;;;;5093871;28;20070;-58
2021/08/01 11:52:32;;;;;;;2.97;2.67;;;;;;;;;;5092958;28;20021;-58
2021/08/01 11:54:58;;;;;;;4.85;3.63;;;;;;;;;;5093726;28;20028;-58
2021/08/01 11:57:31;;;;;;;3.60;3.13;;;;;;;;;;5093903;28;20020;-58
2021/08/01 11:59:58;;;;;;;5.03;3.28;;;;;;;;;;5092519;28;20027;-58
2021/08/01 12:02:24;;;;;;;7.28;4.07;;;;;;;;;;5094165;28;20020;-58
2021/08/01 12:04:57;;;;;;;4.70;3.58;;;;;;;;;;5093224;28;20036;-58
2021/08/01 12:07:23;;;;;;;4.30;3.88;;;;;;;;;;5093016;28;20020;-58
2021/08/01 12:09:50;;;;;;;4.75;3.33;;;;;;;;;;5093729;28;20032;-58
2021/08/01 12:12:28;;;;;;;7.72;3.60;;;;;;;;;;5092602;28;20083;-58
2021/08/01 12:14:55;;;;;;;4.55;3.28;;;;;;;;;;5093645;28;20020;-58
2021/08/01 12:17:21;;;;;;;4.22;3.15;;;;;;;;;;5093609;28;20059;-58
2021/08/01 12:19:47;;;;;;;4.43;3.83;;;;;;;;;;5093236;28;20073;-58
2021/08/01 12:22:17;;;;;;;5.00;3.67;;;;;;;;;;5093984;28;20021;-58
2021/08/01 12:24:55;;;;;;;5.57;3.58;;;;;;;;;;5093439;28;20035;-58
2021/08/01 12:27:25;;;;;;;3.78;2.72;;;;;;;;;;5092861;28;20036;-58
2021/08/01 12:29:53;;;;;;;4.38;3.20;;;;;;;;;;5093969;28;20028;-57
2021/08/01 12:32:28;;;;;;;5.15;3.30;;;;;;;;;;5093535;28;20090;-58
2021/08/01 12:35:08;;;;;;;5.30;3.45;;;;;;;;;;5093598;28;20476;-58
2021/08/01 12:38:00;;;;;;;4.43;3.55;;;;;;;;;;5093671;28;20052;-58
2021/08/01 12:40:31;;;;;;;6.30;3.88;;;;;;;;;;5093441;28;20370;-57
2021/08/01 12:43:00;;;;;;;5.78;3.53;;;;;;;;;;5092138;28;20123;-58
2021/08/01 12:45:30;;;;;;;3.70;2.90;;;;;;;;;;5093740;28;20024;-58
2021/08/01 12:47:56;;;;;;;4.00;3.30;;;;;;;;;;5093318;28;20016;-58
2021/08/01 12:50:22;;;;;;;4.45;3.63;;;;;;;;;;5092289;28;20031;-58
2021/08/01 12:52:50;;;;;;;3.65;3.00;;;;;;;;;;5093700;28;20525;-57
2021/08/01 12:55:16;;;;;;;5.43;3.50;;;;;;;;;;5091981;28;20028;-57
2021/08/01 12:58:01;;;;;;;4.72;4.07;;;;;;;;;;5093494;28;20026;-58
2021/08/01 13:00:30;;;;;;;3.40;2.90;;;;;;;;;;5092829;28;20036;-58
2021/08/01 13:03:02;;;;;;;4.80;3.42;;;;;;;;;;5092337;28;20020;-58
2021/08/01 13:05:29;;;;;;;7.40;3.60;;;;;;;;;;5095433;28;20030;-57
2021/08/01 13:07:58;;;;;;;10.07;2.92;;;;;;;;;;5096754;28;20028;-57
2021/08/01 13:10:24;;;;;;;4.65;3.47;;;;;;;;;;5097075;28;20021;-58
2021/08/01 13:13:07;;;;;;;6.80;3.08;;;;;;;;;;5096800;28;20382;-57
2021/08/01 13:15:35;;;;;;;4.88;3.67;;;;;;;;;;5096874;28;20114;-58
2021/08/01 13:18:01;;;;;;;7.70;2.90;;;;;;;;;;5095874;28;20028;-58
2021/08/01 13:20:32;;;;;;;3.95;2.67;;;;;;;;;;5096812;28;20020;-57
2021/08/01 13:22:58;;;;;;;3.85;2.63;;;;;;;;;;5096593;28;20032;-58
2021/08/01 13:25:36;;;;;;;2.50;1.90;;;;;;;;;;5096485;28;20107;-58
2021/08/01 13:28:03;;;;;;;3.30;2.35;;;;;;;;;;5096630;28;20110;-57
2021/08/01 13:30:29;;;;;;;5.05;2.63;;;;;;;;;;5096598;28;20401;-58
2021/08/01 13:32:55;;;;;;;3.95;2.38;;;;;;;;;;5096721;28;20024;-58
2021/08/01 13:35:25;;;;;;;5.30;2.17;;;;;;;;;;5096763;28;20028;-57
2021/08/01 13:38:05;;;;;;;3.60;2.50;;;;;;;;;;5096190;28;20020;-58
2021/08/01 13:40:37;;;;;;;4.43;2.40;;;;;;;;;;5096487;28;20024;-57
2021/08/01 13:43:13;;;;;;;4.90;2.83;;;;;;;;;;5096698;28;20059;-58
2021/08/01 13:45:39;;;;;;;2.78;2.20;;;;;;;;;;5096048;28;20035;-58
2021/08/01 13:48:05;;;;;;;5.82;2.80;;;;;;;;;;5096248;28;20119;-58
2021/08/01 13:50:32;;;;;;;2.30;1.92;;;;;;;;;;5095752;28;20343;-58
2021/08/01 13:52:58;;;;;;;3.80;2.40;;;;;;;;;;5095958;28;20024;-58
2021/08/01 13:55:24;;;;;;;4.22;2.60;;;;;;;;;;5095059;28;20016;-57
2021/08/01 13:58:00;;;;;;;6.05;2.35;;;;;;;;;;5096284;28;20336;-58
2021/08/01 14:00:26;;;;;;;4.10;2.95;;;;;;;;;;5096254;28;20027;-58
2021/08/01 14:02:52;;;;;;;4.63;2.90;;;;;;;;;;5095682;28;20028;-58
2021/08/01 14:05:18;;;;;;;5.15;2.85;;;;;;;;;;5095944;28;20020;-58
2021/08/01 14:07:44;;;;;;;4.60;3.75;;;;;;;;;;5095599;28;20547;-58
2021/08/01 14:10:10;;;;;;;3.90;3.17;;;;;;;;;;5095301;28;20016;-58
2021/08/01 14:12:37;;;;;;;4.38;3.65;;;;;;;;;;5095759;28;20086;-58
2021/08/01 14:15:08;;;;;;;3.55;2.83;;;;;;;;;;5095260;28;20052;-58
2021/08/01 14:17:34;;;;;;;3.78;2.88;;;;;;;;;;5093301;28;20485;-58
2021/08/01 14:20:00;;;;;;;4.75;3.42;;;;;;;;;;5094139;28;20442;-58
2021/08/01 14:22:29;;;;;;;5.10;3.47;;;;;;;;;;5096141;28;20036;-58
2021/08/01 14:24:55;;;;;;;3.55;2.92;;;;;;;;;;5095235;28;20024;-58
2021/08/01 14:27:25;;;;;;;4.60;2.88;;;;;;;;;;5094284;28;20039;-58
2021/08/01 14:29:51;;;;;;;4.40;2.70;;;;;;;;;;5094897;28;20485;-58
2021/08/01 14:32:17;;;;;;;4.97;2.88;;;;;;;;;;5095473;28;20243;-58
2021/08/01 14:34:44;;;;;;;3.22;2.40;;;;;;;;;;5095043;28;20103;-58
2021/08/01 14:37:10;;;;;;;5.75;2.75;;;;;;;;;;5094914;28;20024;-58
2021/08/01 14:39:40;;;;;;;6.47;3.30;;;;;;;;;;5095043;28;20016;-58
2021/08/01 14:42:07;;;;;;;4.60;3.20;;;;;;;;;;5095262;28;20074;-58
2021/08/01 14:44:34;;;;;;;4.18;2.97;;;;;;;;;;5094721;28;20112;-58
2021/08/01 14:47:00;;;;;;;3.53;2.17;;;;;;;;;;5094783;28;20025;-57